2012-03-20から1日間の記事一覧

METARデータの取得

pc

北九州空港の視程データが欲しくて、毎日せっせとaviationweatherのページへデータを取りに行ってココに貼っていたが、ftpサーバーからftpまたはhttpプロトコルでデータのダウンロードができるらしいので、VisualBasicでプログラムを作ってみた。 意外と短い…

Aviation Digital Data Service (ADDS)

Aviation Digital Data Service (ADDS)Output produced by TAFs form (0958 UTC 20 March 2012) found at http://aviationweather.gov/adds/tafs/ RJFR 200900Z 30011KT 9999 FEW030 SCT/// 10/02 Q1015 RJFR 200800Z 29010KT 9999 FEW030 BKN/// 11/02 Q101…